sensor_id;sensor_type;location;lat;lon;timestamp;pressure;altitude;pressure_sealevel;temperature;humidity
57086;BME280;42964;42.910;23.792;2023-03-14T00:00:14;97788.16;;;5.74;39.48
57086;BME280;42964;42.910;23.792;2023-03-14T00:05:13;97815.09;;;5.95;40.51
57086;BME280;42964;42.910;23.792;2023-03-14T00:10:13;97832.59;;;5.66;42.38
57086;BME280;42964;42.910;23.792;2023-03-14T00:15:12;97805.00;;;5.16;44.04
57086;BME280;42964;42.910;23.792;2023-03-14T00:20:12;97808.34;;;5.12;43.67
57086;BME280;42964;42.910;23.792;2023-03-14T00:25:12;97794.41;;;5.02;42.96
57086;BME280;42964;42.910;23.792;2023-03-14T00:30:11;97782.47;;;5.06;43.42
57086;BME280;42964;42.910;23.792;2023-03-14T00:35:10;97770.41;;;5.03;42.89
57086;BME280;42964;42.910;23.792;2023-03-14T00:40:09;97766.31;;;5.11;42.21
57086;BME280;42964;42.910;23.792;2023-03-14T00:45:09;97786.91;;;5.11;42.33
57086;BME280;42964;42.910;23.792;2023-03-14T00:50:09;97751.75;;;5.12;42.14
57086;BME280;42964;42.910;23.792;2023-03-14T00:55:08;97736.88;;;4.99;41.84
57086;BME280;42964;42.910;23.792;2023-03-14T01:00:08;97756.09;;;5.15;41.62
57086;BME280;42964;42.910;23.792;2023-03-14T01:05:10;97755.41;;;5.23;41.27
57086;BME280;42964;42.910;23.792;2023-03-14T01:10:10;97744.31;;;5.26;41.22
57086;BME280;42964;42.910;23.792;2023-03-14T01:15:09;97729.88;;;5.34;41.25
57086;BME280;42964;42.910;23.792;2023-03-14T01:20:10;97686.44;;;5.05;43.14
57086;BME280;42964;42.910;23.792;2023-03-14T01:25:12;97724.91;;;4.99;43.63
57086;BME280;42964;42.910;23.792;2023-03-14T01:30:13;97717.81;;;4.89;44.38
57086;BME280;42964;42.910;23.792;2023-03-14T01:35:12;97695.91;;;4.27;46.96
57086;BME280;42964;42.910;23.792;2023-03-14T01:40:11;97708.22;;;4.04;48.33
57086;BME280;42964;42.910;23.792;2023-03-14T01:50:48;97710.31;;;3.51;49.54
57086;BME280;42964;42.910;23.792;2023-03-14T01:55:49;97706.41;;;3.32;50.45
57086;BME280;42964;42.910;23.792;2023-03-14T02:00:48;97707.00;;;3.22;50.42
57086;BME280;42964;42.910;23.792;2023-03-14T02:05:48;97700.63;;;3.09;50.87
57086;BME280;42964;42.910;23.792;2023-03-14T02:10:49;97703.59;;;2.93;52.01
57086;BME280;42964;42.910;23.792;2023-03-14T02:15:48;97711.09;;;2.85;51.81
57086;BME280;42964;42.910;23.792;2023-03-14T02:26:21;97703.91;;;2.73;52.18
57086;BME280;42964;42.910;23.792;2023-03-14T02:31:22;97705.50;;;2.70;52.77
57086;BME280;42964;42.910;23.792;2023-03-14T02:36:21;97710.91;;;2.79;51.96
57086;BME280;42964;42.910;23.792;2023-03-14T02:41:21;97710.75;;;2.73;51.99
57086;BME280;42964;42.910;23.792;2023-03-14T02:46:21;97698.00;;;2.76;52.46
57086;BME280;42964;42.910;23.792;2023-03-14T02:51:21;97690.06;;;2.67;52.95
57086;BME280;42964;42.910;23.792;2023-03-14T02:56:21;97688.22;;;2.63;53.16
57086;BME280;42964;42.910;23.792;2023-03-14T03:01:20;97686.78;;;2.42;54.54
57086;BME280;42964;42.910;23.792;2023-03-14T03:06:18;97690.84;;;2.35;54.78
57086;BME280;42964;42.910;23.792;2023-03-14T03:11:17;97682.81;;;2.23;55.12
57086;BME280;42964;42.910;23.792;2023-03-14T03:16:16;97705.16;;;2.29;55.12
57086;BME280;42964;42.910;23.792;2023-03-14T03:21:15;97711.53;;;2.14;55.84
57086;BME280;42964;42.910;23.792;2023-03-14T03:26:14;97712.16;;;2.07;56.45
57086;BME280;42964;42.910;23.792;2023-03-14T03:31:13;97686.22;;;1.96;56.52
57086;BME280;42964;42.910;23.792;2023-03-14T03:36:12;97705.91;;;1.98;56.31
57086;BME280;42964;42.910;23.792;2023-03-14T03:41:11;97710.81;;;1.91;56.58
57086;BME280;42964;42.910;23.792;2023-03-14T03:46:10;97714.09;;;1.87;56.74
57086;BME280;42964;42.910;23.792;2023-03-14T03:51:15;97699.31;;;1.79;57.58
57086;BME280;42964;42.910;23.792;2023-03-14T03:56:15;97696.31;;;1.65;58.11
57086;BME280;42964;42.910;23.792;2023-03-14T04:01:14;97687.03;;;1.43;59.37
57086;BME280;42964;42.910;23.792;2023-03-14T04:06:13;97693.94;;;1.45;58.80
57086;BME280;42964;42.910;23.792;2023-03-14T04:11:12;97697.50;;;1.50;58.36
57086;BME280;42964;42.910;23.792;2023-03-14T04:16:15;97698.50;;;1.54;58.37
57086;BME280;42964;42.910;23.792;2023-03-14T04:21:16;97699.34;;;1.53;58.32
57086;BME280;42964;42.910;23.792;2023-03-14T04:26:16;97697.25;;;1.43;58.82
57086;BME280;42964;42.910;23.792;2023-03-14T04:31:18;97679.38;;;1.43;58.95
57086;BME280;42964;42.910;23.792;2023-03-14T04:36:17;97655.84;;;1.27;59.45
57086;BME280;42964;42.910;23.792;2023-03-14T04:41:16;97665.56;;;1.38;59.73
57086;BME280;42964;42.910;23.792;2023-03-14T04:46:15;97665.56;;;1.38;59.86
57086;BME280;42964;42.910;23.792;2023-03-14T04:51:14;97658.81;;;1.40;60.09
57086;BME280;42964;42.910;23.792;2023-03-14T04:56:13;97636.34;;;1.29;60.25
57086;BME280;42964;42.910;23.792;2023-03-14T05:01:12;97649.66;;;1.46;60.04
57086;BME280;42964;42.910;23.792;2023-03-14T05:06:11;97645.66;;;1.54;60.72
57086;BME280;42964;42.910;23.792;2023-03-14T05:11:11;97650.84;;;1.56;60.90
57086;BME280;42964;42.910;23.792;2023-03-14T05:16:11;97654.88;;;1.49;61.80
57086;BME280;42964;42.910;23.792;2023-03-14T05:21:10;97651.03;;;1.62;61.79
57086;BME280;42964;42.910;23.792;2023-03-14T05:26:09;97654.94;;;1.78;61.67
57086;BME280;42964;42.910;23.792;2023-03-14T05:31:08;97654.31;;;1.85;61.52
57086;BME280;42964;42.910;23.792;2023-03-14T05:36:08;97458.16;;;1.00;60.86
57086;BME280;42964;42.910;23.792;2023-03-14T05:41:07;97636.47;;;2.15;60.88
57086;BME280;42964;42.910;23.792;2023-03-14T05:46:06;97639.50;;;2.31;59.69
57086;BME280;42964;42.910;23.792;2023-03-14T05:51:05;97629.09;;;2.55;58.46
57086;BME280;42964;42.910;23.792;2023-03-14T05:56:04;97627.25;;;2.81;57.76
57086;BME280;42964;42.910;23.792;2023-03-14T06:01:04;97625.13;;;2.98;56.95
57086;BME280;42964;42.910;23.792;2023-03-14T06:06:04;97630.19;;;3.27;55.55
57086;BME280;42964;42.910;23.792;2023-03-14T06:11:03;97628.31;;;3.54;54.04
57086;BME280;42964;42.910;23.792;2023-03-14T06:16:02;97609.88;;;3.71;53.37
57086;BME280;42964;42.910;23.792;2023-03-14T06:21:01;97609.69;;;3.99;52.82
57086;BME280;42964;42.910;23.792;2023-03-14T06:26:00;97604.34;;;4.29;52.07
57086;BME280;42964;42.910;23.792;2023-03-14T06:31:00;97608.31;;;4.56;51.63
57086;BME280;42964;42.910;23.792;2023-03-14T06:35:59;97597.66;;;4.80;49.58
57086;BME280;42964;42.910;23.792;2023-03-14T06:41:06;97591.00;;;4.90;48.89
57086;BME280;42964;42.910;23.792;2023-03-14T06:46:06;97595.66;;;5.09;49.42
57086;BME280;42964;42.910;23.792;2023-03-14T06:51:05;97598.38;;;5.17;51.15
57086;BME280;42964;42.910;23.792;2023-03-14T06:56:05;97603.00;;;5.38;51.95
57086;BME280;42964;42.910;23.792;2023-03-14T07:01:04;97595.19;;;5.32;49.77
57086;BME280;42964;42.910;23.792;2023-03-14T07:06:03;97572.41;;;5.55;48.24
57086;BME280;42964;42.910;23.792;2023-03-14T07:11:02;97576.25;;;5.82;48.68
57086;BME280;42964;42.910;23.792;2023-03-14T07:16:01;97513.50;;;5.76;48.91
57086;BME280;42964;42.910;23.792;2023-03-14T07:21:00;97563.22;;;6.35;48.55
57086;BME280;42964;42.910;23.792;2023-03-14T07:25:59;97558.34;;;6.58;48.13
57086;BME280;42964;42.910;23.792;2023-03-14T07:30:58;97547.56;;;6.96;47.39
57086;BME280;42964;42.910;23.792;2023-03-14T07:35:57;97540.97;;;7.25;46.09
57086;BME280;42964;42.910;23.792;2023-03-14T07:41:01;97442.88;;;7.24;44.03
57086;BME280;42964;42.910;23.792;2023-03-14T07:46:00;97527.03;;;8.24;42.65
57086;BME280;42964;42.910;23.792;2023-03-14T07:50:59;97519.44;;;8.78;39.63
57086;BME280;42964;42.910;23.792;2023-03-14T07:55:58;97505.72;;;9.19;38.88
57086;BME280;42964;42.910;23.792;2023-03-14T08:00:58;97493.66;;;9.43;37.88
57086;BME280;42964;42.910;23.792;2023-03-14T08:05:57;97484.97;;;9.82;36.44
57086;BME280;42964;42.910;23.792;2023-03-14T08:10:56;97490.88;;;10.23;35.58
57086;BME280;42964;42.910;23.792;2023-03-14T08:16:00;97495.94;;;10.52;34.74
57086;BME280;42964;42.910;23.792;2023-03-14T08:20:59;97496.66;;;10.80;34.71
57086;BME280;42964;42.910;23.792;2023-03-14T08:25:58;97503.47;;;11.02;33.93
57086;BME280;42964;42.910;23.792;2023-03-14T08:30:57;97488.56;;;11.26;33.91
57086;BME280;42964;42.910;23.792;2023-03-14T08:35:58;97476.16;;;11.59;34.05
57086;BME280;42964;42.910;23.792;2023-03-14T08:40:59;97492.38;;;11.85;32.81
57086;BME280;42964;42.910;23.792;2023-03-14T08:45:58;97472.19;;;12.06;32.91
57086;BME280;42964;42.910;23.792;2023-03-14T08:51:12;97460.63;;;12.33;32.31
57086;BME280;42964;42.910;23.792;2023-03-14T08:56:12;97456.72;;;12.66;31.49
57086;BME280;42964;42.910;23.792;2023-03-14T09:01:11;97438.94;;;12.96;30.88
57086;BME280;42964;42.910;23.792;2023-03-14T09:06:10;97443.63;;;13.27;30.41
57086;BME280;42964;42.910;23.792;2023-03-14T09:11:09;97431.97;;;13.49;29.78
57086;BME280;42964;42.910;23.792;2023-03-14T09:16:08;97424.88;;;13.59;29.52
57086;BME280;42964;42.910;23.792;2023-03-14T09:21:07;97407.88;;;13.83;29.42
57086;BME280;42964;42.910;23.792;2023-03-14T09:26:06;97403.72;;;14.18;28.88
57086;BME280;42964;42.910;23.792;2023-03-14T09:31:09;97383.84;;;14.50;28.45
57086;BME280;42964;42.910;23.792;2023-03-14T09:36:09;97384.16;;;14.76;28.59
57086;BME280;42964;42.910;23.792;2023-03-14T09:41:29;97370.59;;;14.96;28.13
57086;BME280;42964;42.910;23.792;2023-03-14T09:46:31;97364.16;;;15.11;27.23
57086;BME280;42964;42.910;23.792;2023-03-14T09:51:31;97358.03;;;15.12;27.13
57086;BME280;42964;42.910;23.792;2023-03-14T09:56:32;97349.72;;;15.29;26.91
57086;BME280;42964;42.910;23.792;2023-03-14T10:01:33;97281.66;;;15.01;27.27
57086;BME280;42964;42.910;23.792;2023-03-14T10:06:32;97321.41;;;15.45;26.52
57086;BME280;42964;42.910;23.792;2023-03-14T10:11:31;97303.78;;;15.53;26.52
57086;BME280;42964;42.910;23.792;2023-03-14T10:16:31;97286.66;;;15.73;26.57
57086;BME280;42964;42.910;23.792;2023-03-14T10:21:30;97241.41;;;15.69;26.73
57086;BME280;42964;42.910;23.792;2023-03-14T10:26:34;97263.19;;;15.99;26.08
57086;BME280;42964;42.910;23.792;2023-03-14T10:32:06;97258.84;;;16.28;26.25
57086;BME280;42964;42.910;23.792;2023-03-14T10:37:21;97243.44;;;16.45;25.42
57086;BME280;42964;42.910;23.792;2023-03-14T10:42:25;97238.94;;;16.76;25.41
57086;BME280;42964;42.910;23.792;2023-03-14T10:47:28;97226.13;;;16.93;25.27
57086;BME280;42964;42.910;23.792;2023-03-14T10:52:28;97214.09;;;17.12;24.99
57086;BME280;42964;42.910;23.792;2023-03-14T10:57:28;97144.84;;;16.95;25.26
57086;BME280;42964;42.910;23.792;2023-03-14T11:02:33;97195.34;;;17.47;25.14
57086;BME280;42964;42.910;23.792;2023-03-14T11:07:40;97180.00;;;17.60;24.34
57086;BME280;42964;42.910;23.792;2023-03-14T11:23:27;97148.44;;;18.07;23.60
57086;BME280;42964;42.910;23.792;2023-03-14T11:28:40;97137.31;;;18.00;24.09
57086;BME280;42964;42.910;23.792;2023-03-14T11:34:01;97118.69;;;18.06;24.02
57086;BME280;42964;42.910;23.792;2023-03-14T11:39:13;97096.34;;;17.96;23.69
57086;BME280;42964;42.910;23.792;2023-03-14T11:44:37;97097.56;;;18.09;22.78
57086;BME280;42964;42.910;23.792;2023-03-14T11:49:58;97094.31;;;18.03;22.28
57086;BME280;42964;42.910;23.792;2023-03-14T11:55:19;97079.50;;;18.22;23.13
57086;BME280;42964;42.910;23.792;2023-03-14T12:00:21;97063.03;;;18.18;22.84
57086;BME280;42964;42.910;23.792;2023-03-14T12:11:03;97049.38;;;18.51;22.65
57086;BME280;42964;42.910;23.792;2023-03-14T12:16:24;97042.47;;;18.69;22.19
57086;BME280;42964;42.910;23.792;2023-03-14T12:21:44;97028.13;;;18.76;21.84
57086;BME280;42964;42.910;23.792;2023-03-14T12:26:57;97018.47;;;18.77;22.21
57086;BME280;42964;42.910;23.792;2023-03-14T12:32:24;97016.63;;;18.79;21.69
57086;BME280;42964;42.910;23.792;2023-03-14T12:37:33;96984.94;;;18.82;22.75
57086;BME280;42964;42.910;23.792;2023-03-14T12:58:44;96976.03;;;19.03;22.35
57086;BME280;42964;42.910;23.792;2023-03-14T13:03:50;96968.13;;;19.03;22.03
57086;BME280;42964;42.910;23.792;2023-03-14T13:08:52;96963.03;;;19.00;21.75
57086;BME280;42964;42.910;23.792;2023-03-14T13:13:58;96951.97;;;18.75;22.72
57086;BME280;42964;42.910;23.792;2023-03-14T13:19:03;96951.91;;;18.76;22.83
57086;BME280;42964;42.910;23.792;2023-03-14T13:24:26;96949.50;;;18.72;22.88
57086;BME280;42964;42.910;23.792;2023-03-14T13:29:26;96938.19;;;18.70;22.28
57086;BME280;42964;42.910;23.792;2023-03-14T13:34:26;96923.78;;;18.78;22.88
57086;BME280;42964;42.910;23.792;2023-03-14T13:39:28;96913.28;;;18.78;22.74
57086;BME280;42964;42.910;23.792;2023-03-14T13:44:33;96900.19;;;18.77;22.46
57086;BME280;42964;42.910;23.792;2023-03-14T13:49:33;96891.88;;;18.67;22.46
57086;BME280;42964;42.910;23.792;2023-03-14T13:54:38;96887.59;;;18.65;22.43
57086;BME280;42964;42.910;23.792;2023-03-14T13:59:37;96883.25;;;18.64;22.47
57086;BME280;42964;42.910;23.792;2023-03-14T14:04:36;96868.56;;;18.59;22.21
57086;BME280;42964;42.910;23.792;2023-03-14T14:09:39;96800.44;;;18.00;22.36
57086;BME280;42964;42.910;23.792;2023-03-14T14:19:44;96840.69;;;18.19;22.03
57086;BME280;42964;42.910;23.792;2023-03-14T14:24:44;96837.00;;;18.04;22.48
57086;BME280;42964;42.910;23.792;2023-03-14T14:29:59;96815.88;;;17.87;22.93
57086;BME280;42964;42.910;23.792;2023-03-14T14:35:00;96818.19;;;17.94;23.16
57086;BME280;42964;42.910;23.792;2023-03-14T14:40:16;96804.69;;;17.83;22.68
57086;BME280;42964;42.910;23.792;2023-03-14T14:45:19;96764.06;;;17.52;22.99
57086;BME280;42964;42.910;23.792;2023-03-14T14:55:59;96797.44;;;17.49;23.12
57086;BME280;42964;42.910;23.792;2023-03-14T15:01:13;96791.81;;;17.38;23.83
57086;BME280;42964;42.910;23.792;2023-03-14T15:06:14;96791.25;;;17.31;24.29
57086;BME280;42964;42.910;23.792;2023-03-14T15:11:22;96784.22;;;17.11;25.19
57086;BME280;42964;42.910;23.792;2023-03-14T15:16:25;96760.09;;;16.82;25.45
57086;BME280;42964;42.910;23.792;2023-03-14T15:21:27;96777.41;;;16.86;25.50
57086;BME280;42964;42.910;23.792;2023-03-14T15:26:27;96774.16;;;16.58;26.49
57086;BME280;42964;42.910;23.792;2023-03-14T15:31:26;96769.31;;;16.26;26.85
57086;BME280;42964;42.910;23.792;2023-03-14T15:36:30;96776.25;;;16.05;26.93
57086;BME280;42964;42.910;23.792;2023-03-14T15:41:30;96777.38;;;15.75;27.64
57086;BME280;42964;42.910;23.792;2023-03-14T15:46:29;96769.75;;;15.45;28.03
57086;BME280;42964;42.910;23.792;2023-03-14T15:51:28;96762.94;;;15.16;28.62
57086;BME280;42964;42.910;23.792;2023-03-14T15:56:27;96757.91;;;14.85;28.71
57086;BME280;42964;42.910;23.792;2023-03-14T16:01:29;96757.41;;;14.47;29.76
57086;BME280;42964;42.910;23.792;2023-03-14T16:06:28;96753.88;;;14.21;30.01
57086;BME280;42964;42.910;23.792;2023-03-14T16:11:27;96737.13;;;14.00;29.89
57086;BME280;42964;42.910;23.792;2023-03-14T16:16:26;96738.91;;;13.70;30.65
57086;BME280;42964;42.910;23.792;2023-03-14T16:21:25;96737.22;;;13.38;31.32
57086;BME280;42964;42.910;23.792;2023-03-14T16:26:23;96739.78;;;13.08;31.61
57086;BME280;42964;42.910;23.792;2023-03-14T16:31:22;96748.00;;;12.92;31.99
57086;BME280;42964;42.910;23.792;2023-03-14T16:36:23;96739.75;;;12.77;32.47
57086;BME280;42964;42.910;23.792;2023-03-14T16:41:22;96747.44;;;12.47;32.60
57086;BME280;42964;42.910;23.792;2023-03-14T16:46:21;96744.31;;;12.33;32.61
57086;BME280;42964;42.910;23.792;2023-03-14T16:51:21;96729.78;;;12.22;32.73
57086;BME280;42964;42.910;23.792;2023-03-14T16:56:20;96730.75;;;12.18;33.08
57086;BME280;42964;42.910;23.792;2023-03-14T17:01:19;96720.00;;;11.96;33.59
57086;BME280;42964;42.910;23.792;2023-03-14T17:06:24;96739.19;;;11.91;33.39
57086;BME280;42964;42.910;23.792;2023-03-14T17:11:23;96743.78;;;11.79;34.51
57086;BME280;42964;42.910;23.792;2023-03-14T17:16:22;96733.00;;;11.57;34.21
57086;BME280;42964;42.910;23.792;2023-03-14T17:21:22;96728.69;;;11.56;33.97
57086;BME280;42964;42.910;23.792;2023-03-14T17:26:21;96729.88;;;11.41;34.58
57086;BME280;42964;42.910;23.792;2023-03-14T17:31:20;96724.13;;;11.25;35.15
57086;BME280;42964;42.910;23.792;2023-03-14T17:36:21;96720.13;;;11.09;34.92
57086;BME280;42964;42.910;23.792;2023-03-14T17:41:24;96705.72;;;10.94;35.88
57086;BME280;42964;42.910;23.792;2023-03-14T17:46:23;96716.25;;;10.83;35.55
57086;BME280;42964;42.910;23.792;2023-03-14T17:51:22;96712.28;;;10.64;36.44
57086;BME280;42964;42.910;23.792;2023-03-14T17:56:22;96719.34;;;10.56;36.41
57086;BME280;42964;42.910;23.792;2023-03-14T18:01:21;96726.34;;;10.52;36.31
57086;BME280;42964;42.910;23.792;2023-03-14T18:06:21;96728.19;;;10.44;36.23
57086;BME280;42964;42.910;23.792;2023-03-14T18:11:21;96667.22;;;10.22;35.87
57086;BME280;42964;42.910;23.792;2023-03-14T18:16:20;96708.34;;;10.41;36.59
57086;BME280;42964;42.910;23.792;2023-03-14T18:21:19;96710.41;;;10.23;36.58
57086;BME280;42964;42.910;23.792;2023-03-14T18:26:19;96722.31;;;10.33;36.49
57086;BME280;42964;42.910;23.792;2023-03-14T18:31:19;96718.06;;;10.30;36.26
57086;BME280;42964;42.910;23.792;2023-03-14T18:36:21;96731.09;;;10.26;36.17
57086;BME280;42964;42.910;23.792;2023-03-14T18:41:19;96723.44;;;10.18;36.44
57086;BME280;42964;42.910;23.792;2023-03-14T18:46:20;96720.16;;;10.08;36.55
57086;BME280;42964;42.910;23.792;2023-03-14T18:51:19;96708.94;;;10.06;36.05
57086;BME280;42964;42.910;23.792;2023-03-14T18:56:18;96721.97;;;10.03;36.05
57086;BME280;42964;42.910;23.792;2023-03-14T19:01:17;96653.34;;;9.70;36.27
57086;BME280;42964;42.910;23.792;2023-03-14T19:06:16;96714.13;;;10.05;36.27
57086;BME280;42964;42.910;23.792;2023-03-14T19:11:16;96709.78;;;10.07;35.90
57086;BME280;42964;42.910;23.792;2023-03-14T19:16:15;96714.13;;;10.05;36.74
57086;BME280;42964;42.910;23.792;2023-03-14T19:21:31;96710.69;;;10.04;35.82
57086;BME280;42964;42.910;23.792;2023-03-14T19:26:31;96708.94;;;10.06;35.80
57086;BME280;42964;42.910;23.792;2023-03-14T19:31:31;96705.44;;;10.09;35.43
57086;BME280;42964;42.910;23.792;2023-03-14T19:36:33;96699.22;;;10.19;35.82
57086;BME280;42964;42.910;23.792;2023-03-14T19:41:33;96653.88;;;9.92;35.28
57086;BME280;42964;42.910;23.792;2023-03-14T19:46:32;96673.34;;;10.16;34.88
57086;BME280;42964;42.910;23.792;2023-03-14T19:51:33;96672.50;;;10.15;34.97
57086;BME280;42964;42.910;23.792;2023-03-14T19:56:33;96668.94;;;10.23;34.98
57086;BME280;42964;42.910;23.792;2023-03-14T20:01:32;96662.91;;;10.19;34.70
57086;BME280;42964;42.910;23.792;2023-03-14T20:06:32;96666.56;;;10.07;34.87
57086;BME280;42964;42.910;23.792;2023-03-14T20:11:32;96653.03;;;9.90;35.39
57086;BME280;42964;42.910;23.792;2023-03-14T20:16:33;96665.72;;;10.08;34.25
57086;BME280;42964;42.910;23.792;2023-03-14T20:21:34;96676.94;;;10.07;34.40
57086;BME280;42964;42.910;23.792;2023-03-14T20:26:33;96670.97;;;10.02;35.16
57086;BME280;42964;42.910;23.792;2023-03-14T20:31:33;96667.69;;;9.91;34.92
57086;BME280;42964;42.910;23.792;2023-03-14T20:36:35;96666.78;;;9.95;35.23
57086;BME280;42964;42.910;23.792;2023-03-14T20:41:35;96677.34;;;9.84;34.90
57086;BME280;42964;42.910;23.792;2023-03-14T20:46:39;96649.75;;;9.78;35.28
57086;BME280;42964;42.910;23.792;2023-03-14T20:51:38;96664.41;;;9.83;35.14
57086;BME280;42964;42.910;23.792;2023-03-14T20:56:37;96657.66;;;9.72;34.53
57086;BME280;42964;42.910;23.792;2023-03-14T21:01:36;96645.63;;;9.68;35.08
57086;BME280;42964;42.910;23.792;2023-03-14T21:06:35;96612.06;;;9.61;34.59
57086;BME280;42964;42.910;23.792;2023-03-14T21:11:34;96592.34;;;9.52;34.11
57086;BME280;42964;42.910;23.792;2023-03-14T21:16:41;96624.97;;;9.62;34.43
57086;BME280;42964;42.910;23.792;2023-03-14T21:21:40;96582.28;;;9.32;34.52
57086;BME280;42964;42.910;23.792;2023-03-14T21:26:39;96602.00;;;9.41;34.55
57086;BME280;42964;42.910;23.792;2023-03-14T21:31:39;96463.34;;;8.65;34.38
57086;BME280;42964;42.910;23.792;2023-03-14T21:36:38;96594.19;;;9.44;34.65
57086;BME280;42964;42.910;23.792;2023-03-14T21:41:37;96592.63;;;9.33;34.32
57086;BME280;42964;42.910;23.792;2023-03-14T21:46:36;96618.31;;;9.46;34.78
57086;BME280;42964;42.910;23.792;2023-03-14T21:51:35;96612.28;;;9.45;34.99
57086;BME280;42964;42.910;23.792;2023-03-14T21:56:34;96621.09;;;9.35;34.83
57086;BME280;42964;42.910;23.792;2023-03-14T22:01:33;96609.09;;;9.26;35.02
57086;BME280;42964;42.910;23.792;2023-03-14T22:06:32;96618.56;;;9.30;34.87
57086;BME280;42964;42.910;23.792;2023-03-14T22:11:32;96608.31;;;9.18;35.03
57086;BME280;42964;42.910;23.792;2023-03-14T22:16:31;96612.78;;;9.08;34.87
57086;BME280;42964;42.910;23.792;2023-03-14T22:21:30;96574.16;;;8.94;34.71
57086;BME280;42964;42.910;23.792;2023-03-14T22:26:29;96607.59;;;9.10;34.39
57086;BME280;42964;42.910;23.792;2023-03-14T22:31:28;96603.38;;;9.03;34.70
57086;BME280;42964;42.910;23.792;2023-03-14T22:36:27;96601.53;;;9.11;34.31
57086;BME280;42964;42.910;23.792;2023-03-14T22:41:26;96598.06;;;9.12;34.03
57086;BME280;42964;42.910;23.792;2023-03-14T22:46:25;96593.69;;;9.15;34.15
57086;BME280;42964;42.910;23.792;2023-03-14T22:51:24;96592.91;;;9.09;34.68
57086;BME280;42964;42.910;23.792;2023-03-14T22:56:23;96586.09;;;9.05;34.81
57086;BME280;42964;42.910;23.792;2023-03-14T23:01:22;96578.34;;;9.03;34.42
57086;BME280;42964;42.910;23.792;2023-03-14T23:06:21;96587.91;;;8.97;34.76
57086;BME280;42964;42.910;23.792;2023-03-14T23:11:19;96574.16;;;8.94;34.63
57086;BME280;42964;42.910;23.792;2023-03-14T23:16:18;96566.44;;;8.93;35.15
57086;BME280;42964;42.910;23.792;2023-03-14T23:21:21;96569.09;;;8.85;34.54
57086;BME280;42964;42.910;23.792;2023-03-14T23:26:22;96559.56;;;8.90;34.50
57086;BME280;42964;42.910;23.792;2023-03-14T23:31:21;96561.19;;;8.96;34.15
57086;BME280;42964;42.910;23.792;2023-03-14T23:36:20;96555.06;;;9.03;33.68
57086;BME280;42964;42.910;23.792;2023-03-14T23:41:19;96548.13;;;9.05;33.61
57086;BME280;42964;42.910;23.792;2023-03-14T23:46:18;96549.63;;;9.22;33.29
57086;BME280;42964;42.910;23.792;2023-03-14T23:51:17;96548.97;;;9.06;33.47
57086;BME280;42964;42.910;23.792;2023-03-14T23:56:16;96540.38;;;9.05;33.49
